createdAt,value
2017-08-30T00:00:04.894Z,0
2017-08-30T00:01:06.506Z,0
2017-08-30T00:02:08.119Z,0
2017-08-30T00:03:09.737Z,0
2017-08-30T00:04:11.354Z,0
2017-08-30T00:05:12.963Z,0
2017-08-30T00:06:14.578Z,0
2017-08-30T00:07:16.192Z,0
2017-08-30T00:08:17.810Z,0
2017-08-30T00:09:19.425Z,0
2017-08-30T00:10:21.036Z,0
2017-08-30T00:11:22.649Z,0
2017-08-30T00:12:24.270Z,0
2017-08-30T00:13:25.888Z,0
2017-08-30T00:14:27.499Z,0
2017-08-30T00:15:29.110Z,0
2017-08-30T00:16:30.730Z,0
2017-08-30T00:17:32.377Z,0
2017-08-30T00:18:33.957Z,0
2017-08-30T00:19:35.601Z,0
2017-08-30T00:20:37.189Z,0
2017-08-30T00:21:38.808Z,0
2017-08-30T00:22:40.417Z,0
2017-08-30T00:23:42.028Z,0
2017-08-30T00:24:43.653Z,0
2017-08-30T00:25:45.261Z,0
2017-08-30T00:26:46.871Z,0
2017-08-30T00:27:48.486Z,0
2017-08-30T00:28:50.106Z,0
2017-08-30T00:29:51.721Z,0
2017-08-30T00:30:53.330Z,0
2017-08-30T00:31:54.942Z,0
2017-08-30T00:32:56.560Z,0
2017-08-30T00:33:58.180Z,0
2017-08-30T00:34:59.791Z,0
2017-08-30T00:36:01.405Z,0
2017-08-30T00:37:03.023Z,0
2017-08-30T00:38:04.637Z,0
2017-08-30T00:39:06.249Z,0
2017-08-30T00:40:07.865Z,0
2017-08-30T00:41:09.482Z,0
2017-08-30T00:42:11.094Z,0
2017-08-30T00:43:12.710Z,0
2017-08-30T00:44:14.331Z,0
2017-08-30T00:45:15.956Z,0
2017-08-30T00:46:17.550Z,0
2017-08-30T00:47:19.162Z,0
2017-08-30T00:48:20.788Z,0
2017-08-30T00:49:22.399Z,0
2017-08-30T00:50:24.011Z,0
2017-08-30T00:51:25.625Z,0
2017-08-30T00:52:27.242Z,0
2017-08-30T00:53:28.859Z,0
2017-08-30T00:54:30.468Z,0
2017-08-30T00:55:32.081Z,0
2017-08-30T00:56:33.702Z,0
2017-08-30T00:57:35.320Z,0
2017-08-30T00:58:36.927Z,0
2017-08-30T00:59:38.540Z,0
2017-08-30T01:00:40.157Z,0
2017-08-30T01:01:41.776Z,0
2017-08-30T01:02:43.386Z,0
2017-08-30T01:03:45.001Z,0
2017-08-30T01:04:46.621Z,0
2017-08-30T01:05:48.236Z,0
2017-08-30T01:06:49.845Z,0
2017-08-30T01:07:51.460Z,0
2017-08-30T01:08:53.078Z,0
2017-08-30T01:09:54.695Z,0
2017-08-30T01:10:56.306Z,0
2017-08-30T01:11:57.925Z,0
2017-08-30T01:12:59.544Z,0
2017-08-30T01:14:01.157Z,0
2017-08-30T01:15:02.766Z,0
2017-08-30T01:16:04.376Z,0
2017-08-30T01:17:05.995Z,0
2017-08-30T01:18:07.617Z,0
2017-08-30T01:19:09.223Z,0
2017-08-30T01:20:10.836Z,0
2017-08-30T01:21:12.452Z,0
2017-08-30T01:22:14.067Z,0
2017-08-30T01:23:15.678Z,0
2017-08-30T01:24:17.293Z,0
2017-08-30T01:25:18.912Z,0
2017-08-30T01:26:20.531Z,0
2017-08-30T01:27:22.146Z,0
2017-08-30T01:28:23.760Z,0
2017-08-30T01:29:25.370Z,0
2017-08-30T01:30:26.983Z,0
2017-08-30T01:31:28.603Z,0
2017-08-30T01:32:30.214Z,0
2017-08-30T01:33:31.832Z,0
2017-08-30T01:34:33.447Z,0
2017-08-30T01:35:35.056Z,0
2017-08-30T01:36:36.669Z,0
2017-08-30T01:37:38.288Z,0
2017-08-30T01:38:39.907Z,0
2017-08-30T01:39:41.516Z,0
2017-08-30T01:40:43.132Z,0
2017-08-30T01:41:44.742Z,0
2017-08-30T01:42:46.360Z,0
2017-08-30T01:43:47.976Z,0
2017-08-30T01:44:49.594Z,0
2017-08-30T01:45:51.205Z,0
2017-08-30T01:46:52.819Z,0
2017-08-30T01:47:54.438Z,0
2017-08-30T01:48:56.054Z,0
2017-08-30T01:49:57.664Z,0
2017-08-30T01:50:59.278Z,0
2017-08-30T01:52:00.896Z,0
2017-08-30T01:53:02.513Z,0
2017-08-30T01:54:04.128Z,0
2017-08-30T01:55:05.742Z,0
2017-08-30T01:56:07.352Z,0
2017-08-30T01:57:08.973Z,0
2017-08-30T01:58:10.585Z,0
2017-08-30T01:59:12.198Z,0
2017-08-30T02:00:13.809Z,0
2017-08-30T02:01:15.430Z,0
2017-08-30T02:02:17.047Z,0
2017-08-30T02:03:18.657Z,0
2017-08-30T02:04:20.266Z,0
2017-08-30T02:05:21.887Z,0
2017-08-30T02:06:23.502Z,0
2017-08-30T02:07:25.115Z,0
2017-08-30T02:08:26.728Z,0
2017-08-30T02:09:28.350Z,0
2017-08-30T02:10:29.963Z,0
2017-08-30T02:11:31.573Z,0
2017-08-30T02:12:33.186Z,0
2017-08-30T02:13:34.805Z,0
2017-08-30T02:14:36.420Z,0
2017-08-30T02:15:38.033Z,0
2017-08-30T02:16:39.648Z,0
2017-08-30T02:17:41.267Z,0
2017-08-30T02:18:42.876Z,0
2017-08-30T02:19:44.490Z,0
2017-08-30T02:20:46.109Z,0
2017-08-30T02:21:47.726Z,0
2017-08-30T02:22:49.338Z,0
2017-08-30T02:23:50.954Z,0
2017-08-30T02:24:52.569Z,0
2017-08-30T02:25:54.184Z,0
2017-08-30T02:26:55.794Z,0
2017-08-30T02:27:57.408Z,0
2017-08-30T02:28:59.026Z,0
2017-08-30T02:30:00.667Z,0
2017-08-30T02:31:02.256Z,0
2017-08-30T02:32:03.875Z,0
2017-08-30T02:33:05.488Z,0
2017-08-30T02:34:07.110Z,0
2017-08-30T02:35:08.719Z,0
2017-08-30T02:36:10.333Z,0
2017-08-30T02:37:11.953Z,0
2017-08-30T02:38:13.570Z,0
2017-08-30T02:39:15.175Z,0
2017-08-30T02:40:16.795Z,0
2017-08-30T02:41:18.412Z,0
2017-08-30T02:42:20.028Z,0
2017-08-30T02:43:21.638Z,0
2017-08-30T02:44:23.250Z,0
2017-08-30T02:45:24.870Z,0
2017-08-30T02:46:26.493Z,0
2017-08-30T02:47:28.093Z,0
2017-08-30T02:48:29.712Z,0
2017-08-30T02:49:31.330Z,0
2017-08-30T02:50:32.944Z,0
2017-08-30T02:51:34.559Z,0
2017-08-30T02:52:36.178Z,0
2017-08-30T02:53:37.787Z,0
2017-08-30T02:54:39.399Z,0
2017-08-30T02:55:41.018Z,0
2017-08-30T02:56:42.632Z,0
2017-08-30T02:57:44.244Z,0
2017-08-30T02:58:45.862Z,0
2017-08-30T02:59:47.479Z,0
2017-08-30T03:00:49.093Z,0
2017-08-30T03:01:50.701Z,0
2017-08-30T03:02:52.314Z,0
2017-08-30T03:03:53.930Z,0
2017-08-30T03:04:55.548Z,0
2017-08-30T03:05:57.159Z,0
2017-08-30T03:06:58.777Z,0
2017-08-30T03:08:00.389Z,0
2017-08-30T03:09:02.007Z,0
2017-08-30T03:10:03.616Z,0
2017-08-30T03:11:05.232Z,0
2017-08-30T03:12:06.845Z,0
2017-08-30T03:13:08.462Z,0
2017-08-30T03:14:10.074Z,0
2017-08-30T03:15:11.690Z,0
2017-08-30T03:16:13.302Z,0
2017-08-30T03:17:14.915Z,0
2017-08-30T03:18:16.527Z,0
2017-08-30T03:19:18.140Z,0
2017-08-30T03:20:19.759Z,0
2017-08-30T03:21:21.375Z,0
2017-08-30T03:22:22.983Z,0
2017-08-30T03:23:24.607Z,0
2017-08-30T03:24:26.213Z,0
2017-08-30T03:25:27.826Z,0
2017-08-30T03:26:29.449Z,0
2017-08-30T03:27:31.078Z,0
2017-08-30T03:28:32.678Z,0
2017-08-30T03:29:34.288Z,0
2017-08-30T03:30:35.905Z,0
2017-08-30T03:31:37.523Z,0
2017-08-30T03:32:39.134Z,0
2017-08-30T03:33:40.745Z,0
2017-08-30T03:34:42.364Z,0
2017-08-30T03:35:43.981Z,0
2017-08-30T03:36:45.589Z,0
2017-08-30T03:37:47.201Z,0
2017-08-30T03:38:48.819Z,0
2017-08-30T03:39:50.437Z,0
2017-08-30T03:40:52.047Z,0
2017-08-30T03:41:53.659Z,0
2017-08-30T03:42:55.278Z,0
2017-08-30T03:43:56.906Z,0
2017-08-30T03:44:58.515Z,0
2017-08-30T03:46:00.125Z,0
2017-08-30T03:47:01.742Z,0
2017-08-30T03:48:03.358Z,0
2017-08-30T03:49:04.969Z,0
2017-08-30T03:50:06.581Z,0
2017-08-30T03:51:08.197Z,0
2017-08-30T03:52:09.814Z,0
2017-08-30T03:53:11.422Z,0
2017-08-30T03:54:13.035Z,0
2017-08-30T03:55:14.652Z,0
2017-08-30T03:56:16.264Z,0
2017-08-30T03:57:17.878Z,0
2017-08-30T03:58:19.489Z,0
2017-08-30T03:59:21.115Z,0
2017-08-30T04:00:22.725Z,0
2017-08-30T04:01:24.332Z,0
2017-08-30T04:02:25.944Z,0
2017-08-30T04:03:27.562Z,0
2017-08-30T04:04:29.174Z,0
2017-08-30T04:05:30.784Z,0
2017-08-30T04:06:32.397Z,0
2017-08-30T04:07:34.016Z,0
2017-08-30T04:08:35.632Z,0
2017-08-30T04:09:37.243Z,0
2017-08-30T04:10:38.860Z,0
2017-08-30T04:11:40.477Z,0
2017-08-30T04:12:42.090Z,0
2017-08-30T04:13:43.700Z,0
2017-08-30T04:14:45.314Z,0
2017-08-30T04:15:46.932Z,0
2017-08-30T04:16:48.550Z,0
2017-08-30T04:17:50.167Z,0
2017-08-30T04:18:51.780Z,0
2017-08-30T04:19:53.396Z,0
2017-08-30T04:20:55.006Z,0
2017-08-30T04:21:56.618Z,0
2017-08-30T04:22:58.238Z,5
2017-08-30T04:23:59.856Z,5
2017-08-30T04:25:01.473Z,5
2017-08-30T04:26:03.084Z,5
2017-08-30T04:27:04.697Z,5
2017-08-30T04:28:06.311Z,5
2017-08-30T04:29:07.923Z,5
2017-08-30T04:30:09.541Z,5
2017-08-30T04:31:11.160Z,11
2017-08-30T04:32:12.772Z,11
2017-08-30T04:33:14.391Z,11
2017-08-30T04:34:16.011Z,11
2017-08-30T04:35:17.630Z,16
2017-08-30T04:36:19.242Z,16
2017-08-30T04:37:20.857Z,16
2017-08-30T04:38:22.479Z,22
2017-08-30T04:39:24.097Z,22
2017-08-30T04:40:25.714Z,22
2017-08-30T04:41:27.330Z,22
2017-08-30T04:42:28.947Z,22
2017-08-30T04:43:30.567Z,22
2017-08-30T04:44:32.179Z,22
2017-08-30T04:45:33.794Z,22
2017-08-30T04:46:35.415Z,28
2017-08-30T04:47:37.037Z,28
2017-08-30T04:48:38.651Z,28
2017-08-30T04:49:40.264Z,33
2017-08-30T04:50:41.887Z,33
2017-08-30T04:51:43.503Z,33
2017-08-30T04:52:45.117Z,33
2017-08-30T04:53:46.732Z,39
2017-08-30T04:54:48.354Z,39
2017-08-30T04:55:49.970Z,45
2017-08-30T04:56:51.584Z,45
2017-08-30T04:57:53.200Z,50
2017-08-30T04:58:54.820Z,50
2017-08-30T04:59:56.442Z,50
2017-08-30T05:00:58.053Z,56
2017-08-30T05:01:59.669Z,56
2017-08-30T05:03:01.281Z,61
2017-08-30T05:04:02.903Z,61
2017-08-30T05:05:04.519Z,67
2017-08-30T05:06:06.134Z,67
2017-08-30T05:07:07.751Z,73
2017-08-30T05:08:09.372Z,73
2017-08-30T05:09:10.996Z,78
2017-08-30T05:10:12.611Z,84
2017-08-30T05:11:14.228Z,84
2017-08-30T05:12:15.850Z,84
2017-08-30T05:13:17.468Z,84
2017-08-30T05:14:19.084Z,90
2017-08-30T05:15:20.701Z,95
2017-08-30T05:16:22.325Z,95
2017-08-30T05:17:23.949Z,106
2017-08-30T05:18:25.555Z,73
2017-08-30T05:19:27.174Z,118
2017-08-30T05:20:28.796Z,123
2017-08-30T05:21:30.420Z,129
2017-08-30T05:22:32.037Z,135
2017-08-30T05:23:33.654Z,135
2017-08-30T05:24:35.278Z,135
2017-08-30T05:25:36.897Z,140
2017-08-30T05:26:38.513Z,140
2017-08-30T05:27:40.134Z,146
2017-08-30T05:28:41.755Z,140
2017-08-30T05:29:43.376Z,135
2017-08-30T05:30:44.994Z,135
2017-08-30T05:31:46.610Z,135
2017-08-30T05:32:48.233Z,129
2017-08-30T05:33:49.852Z,123
2017-08-30T05:34:51.468Z,118
2017-08-30T05:35:53.092Z,112
2017-08-30T05:36:54.714Z,112
2017-08-30T05:37:56.336Z,112
2017-08-30T05:38:57.952Z,112
2017-08-30T05:39:59.575Z,112
2017-08-30T05:41:01.200Z,112
2017-08-30T05:42:02.814Z,118
2017-08-30T05:43:04.433Z,118
2017-08-30T05:44:06.058Z,118
2017-08-30T05:45:07.680Z,112
2017-08-30T05:46:09.296Z,106
2017-08-30T05:47:10.934Z,106
2017-08-30T05:48:12.561Z,101
2017-08-30T05:49:14.173Z,106
2017-08-30T05:50:15.794Z,106
2017-08-30T05:51:17.415Z,106
2017-08-30T05:52:19.045Z,112
2017-08-30T05:53:20.665Z,123
2017-08-30T05:54:22.277Z,129
2017-08-30T05:55:23.912Z,140
2017-08-30T05:56:25.533Z,151
2017-08-30T05:57:27.262Z,163
2017-08-30T05:58:28.952Z,168
2017-08-30T05:59:30.605Z,168
2017-08-30T06:00:32.400Z,174
2017-08-30T06:01:34.030Z,180
2017-08-30T06:02:35.648Z,191
2017-08-30T06:03:37.266Z,196
2017-08-30T06:04:38.890Z,202
2017-08-30T06:05:40.511Z,208
2017-08-30T06:06:42.127Z,213
2017-08-30T06:07:43.751Z,219
2017-08-30T06:08:45.372Z,225
2017-08-30T06:09:46.986Z,230
2017-08-30T06:10:48.630Z,247
2017-08-30T06:11:50.256Z,270
2017-08-30T06:12:51.877Z,286
2017-08-30T06:13:53.500Z,303
2017-08-30T06:14:55.115Z,326
2017-08-30T06:15:56.737Z,343
2017-08-30T06:16:58.447Z,360
2017-08-30T06:18:00.066Z,371
2017-08-30T06:19:01.685Z,376
2017-08-30T06:20:03.311Z,376
2017-08-30T06:21:04.939Z,388
2017-08-30T06:22:06.550Z,399
2017-08-30T06:23:08.170Z,405
2017-08-30T06:24:09.793Z,405
2017-08-30T06:25:11.415Z,421
2017-08-30T06:26:13.034Z,421
2017-08-30T06:27:14.656Z,410
2017-08-30T06:28:16.316Z,478
2017-08-30T06:29:17.905Z,421
2017-08-30T06:30:19.518Z,427
2017-08-30T06:31:21.139Z,517
2017-08-30T06:32:22.763Z,568
2017-08-30T06:33:24.386Z,832
2017-08-30T06:34:26.008Z,1653
2017-08-30T06:35:27.631Z,1513
2017-08-30T06:36:29.257Z,1642
2017-08-30T06:37:30.882Z,1760
2017-08-30T06:38:32.499Z,1732
2017-08-30T06:39:34.124Z,1608
2017-08-30T06:40:35.753Z,1653
2017-08-30T06:41:37.374Z,1631
2017-08-30T06:42:38.999Z,1648
2017-08-30T06:43:40.625Z,1490
2017-08-30T06:44:42.249Z,1760
2017-08-30T06:45:43.870Z,1755
2017-08-30T06:46:45.494Z,1743
2017-08-30T06:47:47.123Z,1192
2017-08-30T06:48:48.751Z,1800
2017-08-30T06:49:50.374Z,1884
2017-08-30T06:50:51.993Z,1822
2017-08-30T06:51:53.623Z,1726
2017-08-30T06:52:55.251Z,1653
2017-08-30T06:53:56.872Z,1738
2017-08-30T06:54:58.504Z,1794
2017-08-30T06:56:00.133Z,1850
2017-08-30T06:57:01.768Z,1901
2017-08-30T06:58:03.389Z,1912
2017-08-30T06:59:05.012Z,1850
2017-08-30T07:00:06.646Z,1873
2017-08-30T07:01:08.278Z,2103
2017-08-30T07:02:09.897Z,2272
2017-08-30T07:03:11.531Z,2362
2017-08-30T07:04:13.163Z,1957
2017-08-30T07:05:14.790Z,2233
2017-08-30T07:06:16.414Z,2233
2017-08-30T07:07:18.041Z,2165
2017-08-30T07:08:19.699Z,1980
2017-08-30T07:09:21.304Z,1209
2017-08-30T07:10:22.931Z,1676
2017-08-30T07:11:24.564Z,686
2017-08-30T07:12:26.195Z,562
2017-08-30T07:13:27.816Z,523
2017-08-30T07:14:29.446Z,511
2017-08-30T07:15:31.077Z,506
2017-08-30T07:16:32.703Z,466
2017-08-30T07:17:34.327Z,461
2017-08-30T07:18:35.962Z,461
2017-08-30T07:19:37.592Z,472
2017-08-30T07:20:39.209Z,489
2017-08-30T07:21:40.839Z,511
2017-08-30T07:22:42.464Z,534
2017-08-30T07:23:44.093Z,545
2017-08-30T07:24:45.714Z,568
2017-08-30T07:25:47.338Z,641
2017-08-30T07:26:48.967Z,669
2017-08-30T07:27:50.591Z,686
2017-08-30T07:28:52.216Z,686
2017-08-30T07:29:53.843Z,663
2017-08-30T07:30:55.472Z,646
2017-08-30T07:31:57.098Z,624
2017-08-30T07:32:58.719Z,641
2017-08-30T07:34:00.342Z,624
2017-08-30T07:35:01.972Z,624
2017-08-30T07:36:03.598Z,596
2017-08-30T07:37:05.219Z,568
2017-08-30T07:38:06.848Z,388
2017-08-30T07:39:08.473Z,320
2017-08-30T07:40:10.095Z,292
2017-08-30T07:41:11.719Z,275
2017-08-30T07:42:13.338Z,275
2017-08-30T07:43:14.966Z,292
2017-08-30T07:44:16.591Z,298
2017-08-30T07:45:18.213Z,309
2017-08-30T07:46:19.843Z,331
2017-08-30T07:47:21.463Z,360
2017-08-30T07:48:23.084Z,399
2017-08-30T07:49:24.710Z,500
2017-08-30T07:50:26.334Z,624
2017-08-30T07:51:28.446Z,742
2017-08-30T07:52:30.070Z,1074
2017-08-30T07:53:31.703Z,1035
2017-08-30T07:54:33.331Z,1023
2017-08-30T07:55:34.952Z,1063
2017-08-30T07:56:36.575Z,1710
2017-08-30T07:57:38.203Z,2334
2017-08-30T07:58:39.832Z,1012
2017-08-30T07:59:41.453Z,1040
2017-08-30T08:00:43.078Z,1963
2017-08-30T08:01:44.707Z,2013
2017-08-30T08:02:46.335Z,2221
2017-08-30T08:03:47.954Z,2430
2017-08-30T08:04:49.577Z,2418
2017-08-30T08:05:51.211Z,2086
2017-08-30T08:06:52.838Z,2553
2017-08-30T08:07:54.462Z,1507
2017-08-30T08:08:56.090Z,1923
2017-08-30T08:09:57.720Z,2694
2017-08-30T08:10:59.350Z,1423
2017-08-30T08:12:00.975Z,1254
2017-08-30T08:13:02.602Z,1282
2017-08-30T08:14:04.231Z,2351
2017-08-30T08:15:05.865Z,2221
2017-08-30T08:16:07.491Z,2351
2017-08-30T08:17:09.119Z,2508
2017-08-30T08:18:10.751Z,2278
2017-08-30T08:19:12.377Z,2019
2017-08-30T08:20:14.005Z,2919
2017-08-30T08:21:15.635Z,3026
2017-08-30T08:22:17.270Z,2205
2017-08-30T08:23:18.905Z,1738
2017-08-30T08:24:20.533Z,1603
2017-08-30T08:25:22.162Z,2115
2017-08-30T08:26:23.800Z,1648
2017-08-30T08:27:25.424Z,883
2017-08-30T08:28:27.055Z,708
2017-08-30T08:29:28.681Z,613
2017-08-30T08:30:30.317Z,545
2017-08-30T08:31:31.948Z,506
2017-08-30T08:32:33.571Z,489
2017-08-30T08:33:35.198Z,483
2017-08-30T08:34:36.831Z,461
2017-08-30T08:35:38.458Z,461
2017-08-30T08:36:40.086Z,500
2017-08-30T08:37:41.714Z,562
2017-08-30T08:38:43.345Z,635
2017-08-30T08:39:44.974Z,703
2017-08-30T08:40:46.609Z,770
2017-08-30T08:41:48.229Z,832
2017-08-30T08:42:49.863Z,905
2017-08-30T08:43:51.500Z,945
2017-08-30T08:44:53.122Z,1181
2017-08-30T08:45:54.754Z,1035
2017-08-30T08:46:56.387Z,1001
2017-08-30T08:47:58.014Z,911
2017-08-30T08:48:59.638Z,883
2017-08-30T08:50:01.267Z,877
2017-08-30T08:51:02.898Z,916
2017-08-30T08:52:04.524Z,894
2017-08-30T08:53:06.157Z,860
2017-08-30T08:54:07.785Z,826
2017-08-30T08:55:09.410Z,810
2017-08-30T08:56:11.037Z,832
2017-08-30T08:57:12.668Z,810
2017-08-30T08:58:14.302Z,838
2017-08-30T08:59:15.926Z,815
2017-08-30T09:00:17.550Z,793
2017-08-30T09:01:19.177Z,787
2017-08-30T09:02:20.805Z,776
2017-08-30T09:03:22.431Z,793
2017-08-30T09:04:24.057Z,787
2017-08-30T09:05:25.688Z,798
2017-08-30T09:06:27.319Z,826
2017-08-30T09:07:28.939Z,849
2017-08-30T09:08:30.564Z,770
2017-08-30T09:09:32.193Z,686
2017-08-30T09:10:33.822Z,590
2017-08-30T09:11:35.445Z,540
2017-08-30T09:12:37.068Z,495
2017-08-30T09:13:38.699Z,450
2017-08-30T09:14:40.327Z,405
2017-08-30T09:15:41.948Z,365
2017-08-30T09:16:43.570Z,348
2017-08-30T09:17:45.200Z,354
2017-08-30T09:18:46.829Z,337
2017-08-30T09:19:48.449Z,320
2017-08-30T09:20:50.072Z,309
2017-08-30T09:21:51.699Z,303
2017-08-30T09:22:53.325Z,298
2017-08-30T09:23:54.947Z,303
2017-08-30T09:24:56.571Z,320
2017-08-30T09:25:58.194Z,326
2017-08-30T09:26:59.824Z,303
2017-08-30T09:28:01.451Z,286
2017-08-30T09:29:03.070Z,264
2017-08-30T09:30:04.691Z,230
2017-08-30T09:31:06.316Z,208
2017-08-30T09:32:07.945Z,196
2017-08-30T09:33:09.565Z,191
2017-08-30T09:34:11.189Z,196
2017-08-30T09:35:12.822Z,185
2017-08-30T09:36:14.446Z,174
2017-08-30T09:37:16.064Z,174
2017-08-30T09:38:17.685Z,196
2017-08-30T09:39:19.312Z,219
2017-08-30T09:40:20.941Z,219
2017-08-30T09:41:22.561Z,236
2017-08-30T09:42:24.184Z,286
2017-08-30T09:43:25.811Z,326
2017-08-30T09:44:27.432Z,326
2017-08-30T09:45:29.053Z,320
2017-08-30T09:46:30.672Z,326
2017-08-30T09:47:32.303Z,354
2017-08-30T09:48:33.926Z,320
2017-08-30T09:49:35.547Z,241
2017-08-30T09:50:37.168Z,213
2017-08-30T09:51:38.795Z,225
2017-08-30T09:52:40.417Z,253
2017-08-30T09:53:42.036Z,275
2017-08-30T09:54:43.659Z,281
2017-08-30T09:55:45.286Z,298
2017-08-30T09:56:46.912Z,343
2017-08-30T09:57:48.531Z,360
2017-08-30T09:58:50.154Z,343
2017-08-30T09:59:51.780Z,315
2017-08-30T10:00:53.398Z,309
2017-08-30T10:01:55.026Z,348
2017-08-30T10:02:56.655Z,461
2017-08-30T10:03:58.274Z,585
2017-08-30T10:04:59.901Z,810
2017-08-30T10:06:01.521Z,1080
2017-08-30T10:07:03.148Z,1181
2017-08-30T10:08:04.773Z,1170
2017-08-30T10:09:06.397Z,1119
2017-08-30T10:10:08.026Z,1676
2017-08-30T10:11:09.653Z,1456
2017-08-30T10:12:11.274Z,3712
2017-08-30T10:13:12.894Z,2626
2017-08-30T10:14:14.523Z,3206
2017-08-30T10:15:16.150Z,1603
2017-08-30T10:16:17.778Z,1327
2017-08-30T10:17:19.400Z,1344
2017-08-30T10:18:21.032Z,1575
2017-08-30T10:19:22.662Z,1569
2017-08-30T10:20:24.282Z,1305
2017-08-30T10:21:25.906Z,1113
2017-08-30T10:22:27.538Z,1046
2017-08-30T10:23:29.167Z,1642
2017-08-30T10:24:30.791Z,1271
2017-08-30T10:25:32.417Z,1029
2017-08-30T10:26:34.048Z,860
2017-08-30T10:27:35.674Z,776
2017-08-30T10:28:37.295Z,787
2017-08-30T10:29:38.917Z,810
2017-08-30T10:30:40.547Z,832
2017-08-30T10:31:42.175Z,826
2017-08-30T10:32:43.798Z,894
2017-08-30T10:33:45.423Z,871
2017-08-30T10:34:47.051Z,815
2017-08-30T10:35:48.677Z,720
2017-08-30T10:36:50.302Z,641
2017-08-30T10:37:51.924Z,562
2017-08-30T10:38:53.551Z,495
2017-08-30T10:39:55.181Z,444
2017-08-30T10:40:56.802Z,393
2017-08-30T10:41:58.424Z,371
2017-08-30T10:43:00.052Z,365
2017-08-30T10:44:01.676Z,371
2017-08-30T10:45:03.299Z,393
2017-08-30T10:46:04.921Z,433
2017-08-30T10:47:06.551Z,461
2017-08-30T10:48:08.176Z,466
2017-08-30T10:49:09.796Z,478
2017-08-30T10:50:11.417Z,466
2017-08-30T10:51:13.044Z,466
2017-08-30T10:52:14.678Z,461
2017-08-30T10:53:16.297Z,489
2017-08-30T10:54:17.922Z,495
2017-08-30T10:55:19.549Z,500
2017-08-30T10:56:21.171Z,523
2017-08-30T10:57:22.789Z,568
2017-08-30T10:58:24.412Z,635
2017-08-30T10:59:26.040Z,697
2017-08-30T11:00:27.665Z,798
2017-08-30T11:01:29.285Z,939
2017-08-30T11:02:30.908Z,900
2017-08-30T11:03:32.540Z,1400
2017-08-30T11:04:34.156Z,967
2017-08-30T11:05:35.787Z,1248
2017-08-30T11:06:37.413Z,1980
2017-08-30T11:07:39.036Z,2576
2017-08-30T11:08:40.663Z,1541
2017-08-30T11:09:42.291Z,1473
2017-08-30T11:10:43.918Z,1468
2017-08-30T11:11:45.546Z,1468
2017-08-30T11:12:47.166Z,1546
2017-08-30T11:13:48.793Z,1580
2017-08-30T11:14:50.428Z,1653
2017-08-30T11:15:52.047Z,2002
2017-08-30T11:16:53.674Z,1912
2017-08-30T11:17:55.301Z,1642
2017-08-30T11:18:56.930Z,1524
2017-08-30T11:19:58.554Z,1473
2017-08-30T11:21:00.180Z,1496
2017-08-30T11:22:01.806Z,1535
2017-08-30T11:23:03.444Z,1603
2017-08-30T11:24:05.064Z,1856
2017-08-30T11:25:06.688Z,2947
2017-08-30T11:26:08.323Z,2475
2017-08-30T11:27:09.950Z,2041
2017-08-30T11:28:11.573Z,1985
2017-08-30T11:29:13.204Z,3150
2017-08-30T11:30:14.846Z,3223
2017-08-30T11:31:16.465Z,2818
2017-08-30T11:32:18.091Z,3060
2017-08-30T11:33:19.718Z,3060
2017-08-30T11:34:21.355Z,2795
2017-08-30T11:35:22.984Z,3003
2017-08-30T11:36:24.618Z,3088
2017-08-30T11:37:26.266Z,3262
2017-08-30T11:38:27.880Z,3088
2017-08-30T11:39:29.506Z,2975
2017-08-30T11:40:31.135Z,3031
2017-08-30T11:41:32.773Z,2947
2017-08-30T11:42:34.406Z,3009
2017-08-30T11:43:36.037Z,2913
2017-08-30T11:44:37.675Z,2891
2017-08-30T11:45:39.306Z,2953
2017-08-30T11:46:40.934Z,2868
2017-08-30T11:47:42.563Z,2739
2017-08-30T11:48:44.193Z,2615
2017-08-30T11:49:45.831Z,2593
2017-08-30T11:50:47.459Z,2508
2017-08-30T11:51:49.095Z,2598
2017-08-30T11:52:50.730Z,2711
2017-08-30T11:53:52.362Z,3150
2017-08-30T11:54:53.992Z,3313
2017-08-30T11:55:55.627Z,2733
2017-08-30T11:56:57.259Z,2356
2017-08-30T11:57:58.894Z,2182
2017-08-30T11:59:00.525Z,1816
2017-08-30T12:00:02.156Z,1833
2017-08-30T12:01:03.788Z,1743
2017-08-30T12:02:05.423Z,1636
2017-08-30T12:03:07.051Z,1586
2017-08-30T12:04:08.685Z,1631
2017-08-30T12:05:10.315Z,1631
2017-08-30T12:06:11.952Z,1721
2017-08-30T12:07:13.578Z,1721
2017-08-30T12:08:15.208Z,1710
2017-08-30T12:09:16.845Z,1636
2017-08-30T12:10:18.474Z,1445
2017-08-30T12:11:20.103Z,1389
2017-08-30T12:12:21.739Z,1462
2017-08-30T12:13:23.374Z,1614
2017-08-30T12:14:25.000Z,1715
2017-08-30T12:15:26.628Z,1766
2017-08-30T12:16:28.264Z,1805
2017-08-30T12:17:29.894Z,1670
2017-08-30T12:18:31.524Z,1496
2017-08-30T12:19:33.152Z,1456
2017-08-30T12:20:34.789Z,1501
2017-08-30T12:21:36.419Z,1558
2017-08-30T12:22:38.044Z,1501
2017-08-30T12:23:39.673Z,1468
2017-08-30T12:24:41.309Z,1479
2017-08-30T12:25:42.944Z,1361
2017-08-30T12:26:44.573Z,1395
2017-08-30T12:27:46.203Z,1428
2017-08-30T12:28:47.837Z,1485
2017-08-30T12:29:49.469Z,1406
2017-08-30T12:30:51.096Z,1366
2017-08-30T12:31:52.725Z,1282
2017-08-30T12:32:54.358Z,1237
2017-08-30T12:33:55.993Z,1153
2017-08-30T12:34:57.624Z,1119
2017-08-30T12:35:59.248Z,1153
2017-08-30T12:37:00.881Z,1305
2017-08-30T12:38:02.513Z,1102
2017-08-30T12:39:04.140Z,1051
2017-08-30T12:40:05.767Z,1018
2017-08-30T12:41:07.401Z,995
2017-08-30T12:42:09.029Z,1018
2017-08-30T12:43:10.655Z,984
2017-08-30T12:44:12.288Z,900
2017-08-30T12:45:13.921Z,804
2017-08-30T12:46:15.552Z,691
2017-08-30T12:47:17.177Z,607
2017-08-30T12:48:18.804Z,556
2017-08-30T12:49:20.439Z,523
2017-08-30T12:50:22.062Z,495
2017-08-30T12:51:23.687Z,466
2017-08-30T12:52:25.320Z,461
2017-08-30T12:53:26.947Z,466
2017-08-30T12:54:28.573Z,472
2017-08-30T12:55:30.197Z,427
2017-08-30T12:56:31.831Z,331
2017-08-30T12:57:33.458Z,270
2017-08-30T12:58:35.083Z,236
2017-08-30T12:59:36.705Z,241
2017-08-30T13:00:38.336Z,264
2017-08-30T13:01:39.964Z,264
2017-08-30T13:02:41.586Z,241
2017-08-30T13:03:43.212Z,236
2017-08-30T13:04:44.872Z,241
2017-08-30T13:05:46.471Z,247
2017-08-30T13:06:48.095Z,253
2017-08-30T13:07:49.717Z,270
2017-08-30T13:08:51.351Z,298
2017-08-30T13:09:52.977Z,309
2017-08-30T13:10:54.601Z,298
2017-08-30T13:11:56.222Z,320
2017-08-30T13:12:57.851Z,331
2017-08-30T13:13:59.480Z,315
2017-08-30T13:15:01.101Z,303
2017-08-30T13:16:02.732Z,298
2017-08-30T13:17:04.359Z,286
2017-08-30T13:18:05.981Z,275
2017-08-30T13:19:07.603Z,270
2017-08-30T13:20:09.231Z,275
2017-08-30T13:21:10.860Z,286
2017-08-30T13:22:12.479Z,286
2017-08-30T13:23:14.103Z,270
2017-08-30T13:24:15.736Z,270
2017-08-30T13:25:17.372Z,253
2017-08-30T13:26:18.990Z,225
2017-08-30T13:27:20.606Z,230
2017-08-30T13:28:22.235Z,225
2017-08-30T13:29:23.862Z,230
2017-08-30T13:30:25.482Z,219
2017-08-30T13:31:27.108Z,225
2017-08-30T13:32:28.737Z,247
2017-08-30T13:33:30.361Z,292
2017-08-30T13:34:31.981Z,320
2017-08-30T13:35:33.604Z,298
2017-08-30T13:36:35.232Z,270
2017-08-30T13:37:36.859Z,236
2017-08-30T13:38:38.482Z,208
2017-08-30T13:39:40.111Z,208
2017-08-30T13:40:41.735Z,208
2017-08-30T13:41:43.359Z,208
2017-08-30T13:42:44.981Z,202
2017-08-30T13:43:46.601Z,208
2017-08-30T13:44:48.231Z,213
2017-08-30T13:45:49.854Z,236
2017-08-30T13:46:51.477Z,264
2017-08-30T13:47:53.105Z,292
2017-08-30T13:48:54.726Z,315
2017-08-30T13:49:56.351Z,348
2017-08-30T13:50:57.979Z,382
2017-08-30T13:51:59.599Z,416
2017-08-30T13:53:01.222Z,455
2017-08-30T13:54:02.849Z,500
2017-08-30T13:55:04.475Z,528
2017-08-30T13:56:06.094Z,562
2017-08-30T13:57:07.715Z,568
2017-08-30T13:58:09.342Z,568
2017-08-30T13:59:10.973Z,551
2017-08-30T14:00:12.593Z,556
2017-08-30T14:01:14.216Z,562
2017-08-30T14:02:15.848Z,540
2017-08-30T14:03:17.470Z,523
2017-08-30T14:04:19.088Z,517
2017-08-30T14:05:20.711Z,483
2017-08-30T14:06:22.342Z,444
2017-08-30T14:07:23.970Z,410
2017-08-30T14:08:25.590Z,365
2017-08-30T14:09:27.213Z,348
2017-08-30T14:10:28.841Z,326
2017-08-30T14:11:30.466Z,331
2017-08-30T14:12:32.084Z,320
2017-08-30T14:13:33.711Z,320
2017-08-30T14:14:35.339Z,343
2017-08-30T14:15:36.971Z,360
2017-08-30T14:16:38.590Z,360
2017-08-30T14:17:40.213Z,360
2017-08-30T14:18:41.840Z,376
2017-08-30T14:19:43.466Z,382
2017-08-30T14:20:45.099Z,371
2017-08-30T14:21:46.719Z,382